Time;durP1;ratioP1;P1;durP2;ratioP2;P2;SDS_P1;SDS_P2;PMS_P1;PMS_P2;Temp;Humidity;BMP_temperature;BMP_pressure;BME280_temperature;BME280_humidity;BME280_pressure;Samples;Min_cycle;Max_cycle;Signal;HPM_P1;HPM_P2
2022/06/28 00:02:16;;;;;;;7.82;4.13;;;;;;;24.39;54.06;94913.03;4908147;29;20248;-77
2022/06/28 00:04:43;;;;;;;4.95;3.85;;;;;;;24.27;54.03;94900.69;4897620;29;20622;-76
2022/06/28 00:07:12;;;;;;;4.25;3.85;;;;;;;24.33;54.02;94906.84;4896065;29;20215;-75
2022/06/28 00:09:39;;;;;;;5.22;3.75;;;;;;;24.29;54.12;94914.31;4896236;29;20189;-85
2022/06/28 00:12:06;;;;;;;3.90;3.60;;;;;;;24.26;54.21;94909.50;4896438;29;20196;-76
2022/06/28 00:17:17;;;;;;;6.82;3.90;;;;;;;24.23;54.35;94917.03;4896970;29;20317;-75
2022/06/28 00:19:44;;;;;;;7.13;3.58;;;;;;;24.21;54.51;94911.19;4895971;29;20715;-75
2022/06/28 00:22:13;;;;;;;3.80;3.50;;;;;;;24.19;54.45;94908.00;4896067;29;20203;-77
2022/06/28 00:24:40;;;;;;;3.97;3.47;;;;;;;24.14;54.46;94905.25;4895659;29;20211;-75
2022/06/28 00:27:07;;;;;;;4.53;3.72;;;;;;;24.14;54.68;94913.88;4895846;29;20196;-76
2022/06/28 00:29:33;;;;;;;4.07;3.67;;;;;;;24.13;54.58;94916.69;4895491;29;20196;-75
2022/06/28 00:32:00;;;;;;;4.10;3.67;;;;;;;24.12;54.62;94915.09;4896156;29;20192;-77
2022/06/28 00:34:27;;;;;;;4.72;3.55;;;;;;;24.07;54.83;94915.75;4895515;29;20691;-76
2022/06/28 00:36:54;;;;;;;4.70;4.15;;;;;;;23.99;54.89;94898.53;4895848;29;20192;-78
2022/06/28 00:39:23;;;;;;;6.03;4.00;;;;;;;24.03;55.19;94914.59;4895641;29;20272;-76
2022/06/28 00:41:50;;;;;;;3.70;3.40;;;;;;;24.02;55.11;94903.34;4898343;29;20596;-84
2022/06/28 00:44:17;;;;;;;4.03;3.72;;;;;;;23.99;55.19;94909.00;4898151;29;20553;-84
2022/06/28 00:46:44;;;;;;;4.00;3.60;;;;;;;23.94;55.16;94908.03;4901872;29;20196;-79
2022/06/28 00:49:11;;;;;;;4.05;3.75;;;;;;;23.91;55.43;94908.47;4901691;29;20188;-83
2022/06/28 00:51:39;;;;;;;5.93;3.83;;;;;;;23.94;55.37;94913.28;4902554;29;20199;-81
2022/06/28 00:54:06;;;;;;;4.80;3.90;;;;;;;23.85;55.46;94902.31;4902383;29;20252;-80
2022/06/28 00:56:35;;;;;;;4.28;3.88;;;;;;;23.84;55.43;94905.13;4901798;29;20232;-84
2022/06/28 00:59:02;;;;;;;5.30;4.10;;;;;;;23.86;55.82;94911.72;4900794;29;20219;-86
2022/06/28 01:01:29;;;;;;;4.40;4.10;;;;;;;23.85;55.78;94904.13;4900081;29;20196;-87
2022/06/28 01:03:56;;;;;;;4.55;3.70;;;;;;;23.84;55.68;94912.97;4900821;29;20203;-83
2022/06/28 01:06:26;;;;;;;5.22;3.88;;;;;;;23.75;55.97;94897.56;4900890;29;20200;-81
2022/06/28 01:08:53;;;;;;;6.20;3.55;;;;;;;23.81;56.03;94919.41;4900793;29;20223;-84
2022/06/28 01:11:20;;;;;;;4.53;3.75;;;;;;;23.80;56.07;94912.59;4900533;29;20184;-86
2022/06/28 01:13:50;;;;;;;4.55;4.00;;;;;;;23.78;55.91;94920.63;4901738;29;20197;-82
2022/06/28 01:16:17;;;;;;;4.32;3.92;;;;;;;23.70;55.94;94901.81;4902089;29;20239;-84
2022/06/28 01:18:44;;;;;;;7.90;3.83;;;;;;;23.74;56.33;94910.81;4903342;29;20200;-84
2022/06/28 01:21:13;;;;;;;4.38;3.95;;;;;;;23.72;56.30;94912.88;4901313;29;20252;-80
2022/06/28 01:23:42;;;;;;;4.05;3.65;;;;;;;23.70;56.22;94909.66;4899199;29;20193;-85
2022/06/28 01:26:09;;;;;;;4.40;4.00;;;;;;;23.67;56.38;94905.66;4898935;29;20196;-84
2022/06/28 01:28:36;;;;;;;4.03;3.63;;;;;;;23.67;56.51;94907.47;4899043;29;20204;-84
2022/06/28 01:31:04;;;;;;;4.25;3.88;;;;;;;23.65;56.48;94905.06;4898280;29;20684;-79
2022/06/28 01:33:31;;;;;;;4.30;3.90;;;;;;;23.63;56.59;94901.06;4898970;29;20203;-83
2022/06/28 01:35:58;;;;;;;4.28;3.90;;;;;;;23.63;56.76;94908.88;4899355;29;20247;-81
2022/06/28 01:38:25;;;;;;;5.90;4.20;;;;;;;23.61;56.78;94905.69;4898874;29;20196;-81
2022/06/28 01:40:53;;;;;;;4.32;4.03;;;;;;;23.57;56.72;94901.91;4897685;29;20192;-84
2022/06/28 01:43:20;;;;;;;4.25;3.85;;;;;;;23.57;56.91;94905.31;4897999;29;20198;-84
2022/06/28 01:45:50;;;;;;;7.68;4.10;;;;;;;23.55;56.93;94902.13;4899220;29;20196;-83
2022/06/28 01:48:18;;;;;;;4.55;4.10;;;;;;;23.51;57.21;94904.34;4898486;29;20189;-85
2022/06/28 01:50:45;;;;;;;4.22;3.90;;;;;;;23.52;57.19;94911.16;4898433;29;20746;-84
2022/06/28 01:53:12;;;;;;;4.85;4.40;;;;;;;23.51;57.24;94908.78;4898303;29;20577;-83
2022/06/28 01:55:39;;;;;;;4.00;3.70;;;;;;;23.48;57.21;94907.38;4898400;29;20232;-83
2022/06/28 01:58:08;;;;;;;4.25;3.85;;;;;;;23.47;57.56;94903.16;4898389;29;20562;-82
2022/06/28 02:00:35;;;;;;;4.13;3.83;;;;;;;23.36;57.54;94884.78;4903533;29;20196;-79
2022/06/28 02:03:02;;;;;;;6.15;4.07;;;;;;;23.42;57.62;94897.00;4901028;29;20223;-84
2022/06/28 02:05:30;;;;;;;4.28;3.95;;;;;;;23.43;57.46;94898.59;4898435;29;20204;-84
2022/06/28 02:07:57;;;;;;;4.28;3.97;;;;;;;23.41;57.55;94896.19;4897906;29;20189;-85
2022/06/28 02:10:24;;;;;;;4.88;4.50;;;;;;;23.35;58.00;94885.78;4898503;29;20211;-84
2022/06/28 02:12:51;;;;;;;4.57;4.18;;;;;;;23.37;57.54;94900.25;4899757;29;20193;-84
2022/06/28 02:15:20;;;;;;;4.82;4.15;;;;;;;23.34;57.79;94898.06;4898925;29;20228;-84
2022/06/28 02:17:47;;;;;;;5.43;4.45;;;;;;;23.35;57.66;94901.47;4899377;29;20223;-84
2022/06/28 02:20:14;;;;;;;5.35;4.20;;;;;;;23.33;57.64;94909.50;4899955;29;20228;-86
2022/06/28 02:22:41;;;;;;;4.22;3.83;;;;;;;23.28;57.89;94904.94;4899620;29;20201;-84
2022/06/28 02:25:09;;;;;;;4.03;3.72;;;;;;;23.30;57.99;94909.91;4899210;29;20218;-80
2022/06/28 02:27:35;;;;;;;4.53;3.97;;;;;;;23.28;57.96;94910.16;4899666;29;20200;-83
2022/06/28 02:30:02;;;;;;;5.00;4.15;;;;;;;23.17;57.85;94894.34;4899092;29;20207;-83
2022/06/28 02:32:31;;;;;;;6.28;4.20;;;;;;;23.25;58.03;94905.34;4898984;29;20193;-80
2022/06/28 02:40:26;;;;;;;4.78;4.35;;;;;;;23.19;57.95;94913.22;4899040;29;20211;-75
2022/06/28 02:42:55;;;;;;;4.88;4.47;;;;;;;23.17;58.01;94910.81;4899528;29;20200;-78
2022/06/28 02:45:24;;;;;;;5.47;3.97;;;;;;;23.16;58.29;94911.81;4898644;29;20204;-85
2022/06/28 02:47:52;;;;;;;4.95;4.45;;;;;;;23.13;58.13;94907.00;4898761;29;20200;-74
2022/06/28 02:50:20;;;;;;;4.20;3.80;;;;;;;23.14;58.23;94910.41;4896791;29;20192;-77
2022/06/28 02:52:47;;;;;;;9.75;4.10;;;;;;;23.12;58.32;94904.63;4897187;29;20209;-85
2022/06/28 02:55:14;;;;;;;4.82;4.43;;;;;;;23.11;58.08;94910.88;4897380;29;20200;-86
2022/06/28 02:57:41;;;;;;;5.10;4.38;;;;;;;23.09;58.42;94905.03;4896721;29;20192;-82
2022/06/28 03:00:10;;;;;;;5.60;3.78;;;;;;;23.04;58.42;94897.84;4896534;29;21470;-82
2022/06/28 03:02:38;;;;;;;5.07;3.70;;;;;;;23.07;58.30;94899.25;4896769;29;20193;-83
2022/06/28 03:05:08;;;;;;;4.40;3.70;;;;;;;23.03;58.02;94898.84;4896399;29;20192;-85
2022/06/28 03:07:36;;;;;;;5.35;3.70;;;;;;;23.04;58.38;94898.63;4896415;29;20189;-87
2022/06/28 03:10:03;;;;;;;4.95;4.40;;;;;;;23.07;58.57;94901.84;4896678;29;20565;-78
2022/06/28 03:12:30;;;;;;;4.68;4.13;;;;;;;23.08;58.39;94895.63;4896808;29;20192;-79
2022/06/28 03:14:57;;;;;;;5.47;3.83;;;;;;;23.07;58.40;94894.03;4896218;29;20692;-77
2022/06/28 03:17:24;;;;;;;3.95;3.65;;;;;;;23.07;58.54;94899.25;4896401;29;20220;-78
2022/06/28 03:19:50;;;;;;;4.70;4.30;;;;;;;23.07;58.48;94900.03;4896529;29;20197;-76
2022/06/28 03:22:19;;;;;;;5.88;4.00;;;;;;;23.03;58.61;94896.25;4896711;29;20672;-80
2022/06/28 03:24:46;;;;;;;5.63;4.05;;;;;;;23.07;58.56;94891.41;4901642;29;20196;-80
2022/06/28 03:27:13;;;;;;;7.10;4.65;;;;;;;23.10;58.56;94899.63;4896585;29;20192;-82
2022/06/28 03:29:41;;;;;;;4.38;4.00;;;;;;;23.11;58.70;94897.81;4896653;29;20204;-77
2022/06/28 03:32:08;;;;;;;4.30;3.90;;;;;;;23.12;58.48;94896.81;4896031;29;20207;-83
2022/06/28 03:34:35;;;;;;;4.97;4.28;;;;;;;23.13;58.77;94904.41;4896384;29;20588;-83
2022/06/28 03:37:02;;;;;;;15.18;4.47;;;;;;;23.13;58.78;94901.78;4896604;29;20223;-83
2022/06/28 03:39:30;;;;;;;8.77;4.03;;;;;;;23.17;58.65;94904.78;4896651;29;20204;-86
2022/06/28 03:41:57;;;;;;;7.97;4.38;;;;;;;23.15;58.74;94894.56;4896609;29;20285;-85
2022/06/28 03:44:24;;;;;;;14.77;5.30;;;;;;;23.20;58.73;94907.00;4895999;29;20721;-82
2022/06/28 03:46:51;;;;;;;8.95;5.00;;;;;;;23.19;58.64;94906.19;4895750;29;20208;-85
2022/06/28 03:49:17;;;;;;;11.15;4.78;;;;;;;23.25;58.85;94918.38;4896652;29;20184;-84
2022/06/28 03:51:45;;;;;;;17.50;5.82;;;;;;;23.27;58.59;94915.56;4896065;29;20204;-79
2022/06/28 03:54:15;;;;;;;9.57;4.43;;;;;;;23.31;58.78;94928.97;4896032;29;20197;-84
2022/06/28 03:56:44;;;;;;;14.50;5.00;;;;;;;23.33;58.62;94919.94;4895893;29;20220;-75
2022/06/28 03:59:10;;;;;;;12.10;4.72;;;;;;;23.30;58.74;94917.75;4896424;29;20188;-76
2022/06/28 04:01:37;;;;;;;6.82;4.63;;;;;;;23.41;58.80;94931.94;4895911;29;20596;-85
2022/06/28 04:04:04;;;;;;;7.95;4.68;;;;;;;23.44;58.62;94929.69;4896566;29;20672;-83
2022/06/28 04:06:31;;;;;;;11.18;4.90;;;;;;;23.49;58.68;94929.09;4897022;29;20192;-86
2022/06/28 04:08:58;;;;;;;7.93;4.72;;;;;;;23.53;58.59;94930.22;4896401;29;20279;-85
2022/06/28 04:11:25;;;;;;;9.23;5.40;;;;;;;23.59;58.49;94942.47;4898581;29;20625;-87
2022/06/28 04:13:55;;;;;;;9.07;5.20;;;;;;;23.65;58.44;94944.25;4897165;29;20193;-83
2022/06/28 04:16:23;;;;;;;6.32;5.25;;;;;;;23.69;58.40;94940.19;4897667;29;20235;-84
2022/06/28 04:18:50;;;;;;;10.13;5.53;;;;;;;23.76;58.47;94946.16;4897331;29;20200;-83
2022/06/28 04:21:19;;;;;;;11.65;5.88;;;;;;;23.78;58.40;94941.53;4901500;29;20603;-85
2022/06/28 04:23:46;;;;;;;11.82;5.22;;;;;;;23.86;58.39;94950.91;4903204;29;20200;-85
2022/06/28 04:26:13;;;;;;;7.78;5.38;;;;;;;23.88;58.33;94950.72;5109182;23;20241;-78
2022/06/28 04:28:40;;;;;;;7.35;5.28;;;;;;;23.95;58.32;94954.84;4925333;29;20289;-87
2022/06/28 04:31:09;;;;;;;9.63;5.65;;;;;;;23.99;58.32;94950.00;4917878;29;20223;-85
2022/06/28 04:33:37;;;;;;;7.30;5.93;;;;;;;24.06;58.38;94944.72;4918251;29;20184;-84
2022/06/28 04:36:05;;;;;;;10.13;6.25;;;;;;;24.11;58.31;94944.88;4917571;29;20635;-83
2022/06/28 04:38:32;;;;;;;10.82;6.28;;;;;;;24.16;58.13;94947.63;4918530;29;20199;-84
2022/06/28 04:41:00;;;;;;;9.60;7.07;;;;;;;24.15;58.34;94938.22;4918248;29;20306;-85
2022/06/28 04:43:27;;;;;;;10.27;6.30;;;;;;;24.23;58.59;94951.00;4918641;29;20195;-84
2022/06/28 04:45:54;;;;;;;8.20;6.32;;;;;;;24.26;58.86;94959.19;4918504;29;20200;-83
2022/06/28 04:48:23;;;;;;;9.98;6.45;;;;;;;24.30;58.95;94946.47;4917569;29;20196;-82
2022/06/28 04:50:50;;;;;;;8.52;6.80;;;;;;;24.34;58.37;94950.25;4918211;29;20549;-82
2022/06/28 04:53:17;;;;;;;11.68;6.60;;;;;;;24.38;58.46;94948.84;4917969;29;20200;-83
2022/06/28 04:55:43;;;;;;;7.68;6.28;;;;;;;24.37;58.71;94939.41;4917904;29;20595;-84
2022/06/28 04:58:10;;;;;;;10.10;6.30;;;;;;;24.46;58.56;94953.78;4917706;29;20204;-84
2022/06/28 05:00:37;;;;;;;9.80;6.40;;;;;;;24.47;58.49;94947.53;4918200;29;20310;-77
2022/06/28 05:03:04;;;;;;;18.65;6.63;;;;;;;24.56;58.35;94955.91;4917668;29;20208;-82
2022/06/28 05:05:32;;;;;;;10.90;7.38;;;;;;;24.61;58.43;94956.06;4918118;29;20215;-84
2022/06/28 05:07:59;;;;;;;20.65;6.85;;;;;;;24.65;58.01;94959.81;4917704;29;20199;-86
2022/06/28 05:10:26;;;;;;;11.60;7.47;;;;;;;24.70;58.11;94954.75;4920748;29;20204;-85
2022/06/28 05:12:53;;;;;;;14.80;7.07;;;;;;;24.82;57.49;94952.19;4918049;29;20192;-85
2022/06/28 05:15:20;;;;;;;9.93;5.80;;;;;;;25.06;58.24;94955.72;4920363;29;20218;-84
2022/06/28 05:17:47;;;;;;;7.97;5.60;;;;;;;25.43;59.63;94950.41;4920461;29;20262;-80
2022/06/28 05:20:13;;;;;;;10.27;6.18;;;;;;;25.88;60.41;94944.72;4921970;29;20191;-84
2022/06/28 05:22:42;;;;;;;6.85;5.57;;;;;;;26.44;60.61;94941.53;4919710;29;20279;-85
2022/06/28 05:25:09;;;;;;;11.88;5.85;;;;;;;27.09;60.29;94942.28;4920392;29;20192;-85
2022/06/28 05:27:37;;;;;;;6.50;5.05;;;;;;;27.85;59.74;94948.91;4919419;29;20224;-79
2022/06/28 05:30:04;;;;;;;11.68;5.40;;;;;;;28.65;58.08;94947.69;4918533;29;20579;-85
2022/06/28 05:32:31;;;;;;;14.02;5.30;;;;;;;29.39;56.64;94938.50;4919288;29;20679;-83
2022/06/28 05:34:58;;;;;;;5.63;4.80;;;;;;;30.30;54.63;94958.78;4917531;29;20188;-84
2022/06/28 05:37:25;;;;;;;13.13;4.97;;;;;;;31.13;52.92;94956.28;4919891;29;20227;-82
2022/06/28 05:39:53;;;;;;;13.10;4.72;;;;;;;31.97;50.70;94966.50;4918792;29;20188;-84
2022/06/28 05:42:20;;;;;;;7.80;4.63;;;;;;;32.78;49.17;94959.50;4917239;29;20206;-81
2022/06/28 05:44:47;;;;;;;7.45;3.80;;;;;;;33.60;47.57;94970.53;4916868;29;20328;-84
2022/06/28 05:47:14;;;;;;;11.10;5.18;;;;;;;34.36;45.62;94963.81;4917286;29;20563;-84
2022/06/28 05:49:41;;;;;;;11.63;4.28;;;;;;;35.12;44.23;94959.56;4917720;29;20200;-78
2022/06/28 05:52:08;;;;;;;6.70;4.50;;;;;;;35.89;42.82;94971.78;4918395;29;20192;-78
2022/06/28 05:54:36;;;;;;;13.15;4.55;;;;;;;36.60;41.58;94978.59;4918208;29;20203;-84
2022/06/28 05:57:04;;;;;;;8.40;4.20;;;;;;;37.29;40.33;94983.13;4918085;29;20231;-83
2022/06/28 05:59:32;;;;;;;6.78;3.92;;;;;;;37.94;38.87;94979.31;4918452;29;20703;-85
2022/06/28 06:01:59;;;;;;;7.95;4.22;;;;;;;38.59;38.14;94997.47;4919271;29;20225;-84
2022/06/28 06:04:27;;;;;;;11.05;3.75;;;;;;;39.19;36.83;94999.56;4917930;29;20572;-85
2022/06/28 06:06:54;;;;;;;12.57;4.05;;;;;;;39.77;35.55;94987.72;4917568;29;20208;-84
2022/06/28 06:09:21;;;;;;;9.23;4.20;;;;;;;40.32;34.77;94981.66;4918169;29;20199;-84
2022/06/28 06:11:48;;;;;;;6.03;3.63;;;;;;;40.84;34.34;94989.53;4918385;29;20567;-77
2022/06/28 06:14:18;;;;;;;10.27;3.85;;;;;;;41.28;33.70;94975.91;4918654;29;20200;-83
2022/06/28 06:16:45;;;;;;;5.80;3.53;;;;;;;41.81;32.46;94977.16;4918401;29;20608;-83
2022/06/28 06:19:12;;;;;;;6.20;3.58;;;;;;;42.29;31.99;94981.13;4918613;29;20192;-82
2022/06/28 06:21:39;;;;;;;6.00;3.53;;;;;;;42.74;31.32;94983.78;4917285;29;20187;-82
2022/06/28 06:24:06;;;;;;;7.60;3.20;;;;;;;43.12;30.71;94973.81;4918352;29;20227;-84
2022/06/28 06:26:33;;;;;;;5.85;3.30;;;;;;;43.54;30.08;94977.03;4918455;29;20198;-85
2022/06/28 06:29:01;;;;;;;5.15;3.42;;;;;;;43.91;29.29;94975.00;4918484;29;20191;-85
2022/06/28 06:31:29;;;;;;;5.45;3.15;;;;;;;44.22;28.88;94958.13;4919297;29;20191;-85
2022/06/28 06:33:57;;;;;;;4.25;3.00;;;;;;;44.59;28.39;94971.38;4917257;29;20856;-78
2022/06/28 06:36:24;;;;;;;6.13;3.05;;;;;;;44.85;28.48;94962.75;4916313;29;20199;-85
2022/06/28 06:38:51;;;;;;;10.63;3.92;;;;;;;45.20;27.69;94964.72;4916371;29;20199;-79
2022/06/28 06:41:18;;;;;;;5.55;3.40;;;;;;;45.48;27.22;94968.06;4917445;29;20213;-84
2022/06/28 06:43:45;;;;;;;10.93;3.47;;;;;;;45.76;27.29;94967.06;4916655;29;20195;-84
2022/06/28 06:46:12;;;;;;;3.95;3.53;;;;;;;46.02;26.57;94959.09;4918268;29;20552;-82
2022/06/28 06:48:41;;;;;;;4.05;3.10;;;;;;;46.26;26.54;94957.25;4916765;29;20191;-76
2022/06/28 06:51:08;;;;;;;4.32;3.60;;;;;;;46.54;26.29;94960.41;4917708;29;20194;-87
2022/06/28 06:53:35;;;;;;;5.05;3.13;;;;;;;46.77;26.23;94955.03;4916904;29;20194;-86
2022/06/28 06:56:04;;;;;;;9.30;3.88;;;;;;;46.99;25.40;94945.31;4917948;29;20199;-83
2022/06/28 06:58:31;;;;;;;4.82;3.75;;;;;;;47.18;25.63;94949.03;4916478;29;20322;-78
2022/06/28 07:00:58;;;;;;;5.45;3.63;;;;;;;47.39;24.93;94943.94;4916656;29;20635;-87
2022/06/28 07:03:25;;;;;;;7.25;3.47;;;;;;;47.59;25.18;94949.19;4917066;29;20220;-86
2022/06/28 07:05:53;;;;;;;5.53;3.72;;;;;;;47.78;24.54;94940.16;4917366;29;20623;-84
2022/06/28 07:08:21;;;;;;;5.57;4.13;;;;;;;47.97;24.36;94948.88;4917037;29;20199;-85
2022/06/28 07:10:48;;;;;;;6.78;3.80;;;;;;;48.14;24.21;94955.66;4917052;29;20203;-85
2022/06/28 07:13:15;;;;;;;11.63;3.63;;;;;;;48.31;24.13;94937.22;4916704;29;20302;-84
2022/06/28 07:15:42;;;;;;;5.90;3.78;;;;;;;48.44;23.85;94939.28;4915725;29;20280;-84
2022/06/28 07:18:09;;;;;;;4.38;3.47;;;;;;;48.60;23.65;94944.47;4917208;29;20226;-86
2022/06/28 07:20:36;;;;;;;4.20;3.47;;;;;;;48.75;23.39;94945.38;4915629;29;20198;-82
2022/06/28 07:23:04;;;;;;;4.70;3.63;;;;;;;48.85;23.25;94936.53;4915510;29;20234;-86
2022/06/28 07:25:31;;;;;;;7.38;3.65;;;;;;;48.96;23.06;94934.63;4915493;29;20209;-86
2022/06/28 07:27:58;;;;;;;8.10;3.80;;;;;;;49.09;23.55;94942.47;4915218;29;20250;-86
2022/06/28 07:30:26;;;;;;;4.22;3.83;;;;;;;49.14;23.01;94934.00;4915778;29;20192;-84
2022/06/28 07:32:53;;;;;;;6.93;3.92;;;;;;;49.25;22.93;94939.50;4915557;29;20202;-84
2022/06/28 07:35:24;;;;;;;6.15;3.25;;;;;;;49.33;23.02;94941.88;4915782;29;20203;-87
2022/06/28 07:37:51;;;;;;;4.22;3.75;;;;;;;49.34;22.44;94935.25;4917855;29;20623;-86
2022/06/28 07:40:19;;;;;;;4.05;2.88;;;;;;;49.45;22.78;94946.97;4917985;29;20210;-86
2022/06/28 07:42:47;;;;;;;5.97;3.55;;;;;;;49.34;22.16;94931.78;4918020;29;20706;-81
2022/06/28 07:45:14;;;;;;;5.43;3.50;;;;;;;49.51;22.17;94954.78;4918307;29;20278;-86
2022/06/28 07:47:41;;;;;;;3.55;3.25;;;;;;;49.52;21.87;94948.97;4919597;29;20227;-88
2022/06/28 07:52:52;;;;;;;5.85;3.45;;;;;;;49.52;21.67;94956.34;4919606;29;20239;-85
2022/06/28 07:55:20;;;;;;;5.18;3.20;;;;;;;49.49;22.16;94949.75;4915513;29;20197;-84
2022/06/28 07:57:48;;;;;;;3.95;3.30;;;;;;;49.47;21.98;94949.34;4916907;29;20690;-81
2022/06/28 08:00:19;;;;;;;4.07;3.72;;;;;;;49.43;21.66;94948.50;4922034;29;20191;-86
2022/06/28 08:02:46;;;;;;;6.50;3.28;;;;;;;49.38;21.40;94946.16;4921121;29;20193;-85
2022/06/28 08:05:14;;;;;;;6.03;2.97;;;;;;;49.29;21.46;94943.00;4919501;29;20278;-87
2022/06/28 08:07:41;;;;;;;6.13;3.45;;;;;;;49.19;21.42;94939.88;4918411;29;20290;-88
2022/06/28 08:10:09;;;;;;;3.38;3.17;;;;;;;49.07;21.70;94932.00;4918498;29;20207;-86
2022/06/28 08:12:38;;;;;;;6.45;3.50;;;;;;;48.98;21.90;94935.06;4918898;29;20851;-86
2022/06/28 08:15:07;;;;;;;3.28;2.97;;;;;;;48.86;21.98;94927.22;4924495;29;20258;-87
2022/06/28 08:17:34;;;;;;;3.53;2.97;;;;;;;48.76;21.74;94938.03;4923432;29;20636;-84
2022/06/28 08:20:02;;;;;;;3.70;2.70;;;;;;;48.64;21.62;94928.97;4915545;29;20662;-87
2022/06/28 08:22:28;;;;;;;2.50;2.30;;;;;;;48.51;21.37;94929.66;4915189;29;20199;-83
2022/06/28 08:24:55;;;;;;;3.80;2.63;;;;;;;48.36;21.92;94929.50;4916236;29;20184;-85
2022/06/28 08:27:22;;;;;;;3.60;2.75;;;;;;;48.14;21.77;94920.38;4915459;29;20234;-86
2022/06/28 08:29:51;;;;;;;3.13;2.60;;;;;;;48.10;21.92;94935.06;4915112;29;20199;-86
2022/06/28 08:32:20;;;;;;;4.28;2.78;;;;;;;47.96;21.91;94932.97;4914915;29;20773;-84
2022/06/28 08:34:48;;;;;;;4.25;2.35;;;;;;;47.84;22.02;94933.22;4915219;29;20571;-83
2022/06/28 08:37:17;;;;;;;3.60;2.78;;;;;;;47.68;22.12;94941.59;4914962;29;20195;-86
2022/06/28 08:39:43;;;;;;;2.88;2.67;;;;;;;47.53;22.07;94935.19;4914891;29;20206;-84
2022/06/28 08:42:12;;;;;;;3.15;2.70;;;;;;;47.33;22.30;94928.34;4914607;29;20199;-86
2022/06/28 08:44:41;;;;;;;4.93;2.65;;;;;;;47.20;22.41;94931.28;4924363;29;20194;-80
2022/06/28 08:47:14;;;;;;;3.97;2.70;;;;;;;47.05;22.31;94939.56;4917482;29;20644;-87
2022/06/28 08:49:49;;;;;;;2.97;2.78;;;;;;;46.85;22.06;94928.03;4916466;29;20201;-83
2022/06/28 08:52:18;;;;;;;3.97;2.47;;;;;;;46.69;22.14;94936.31;4915599;29;20714;-85
2022/06/28 08:54:47;;;;;;;2.63;2.42;;;;;;;46.51;22.23;94928.69;4915909;29;20592;-87
2022/06/28 08:57:14;;;;;;;3.10;2.70;;;;;;;46.33;22.46;94930.28;4915935;29;20671;-87
2022/06/28 08:59:41;;;;;;;3.47;2.47;;;;;;;46.14;22.67;94917.59;4915719;29;20223;-86
2022/06/28 09:02:13;;;;;;;3.40;2.55;;;;;;;45.98;22.71;94933.91;4916902;29;20203;-86
2022/06/28 09:04:41;;;;;;;3.38;2.78;;;;;;;45.79;22.73;94933.97;4914734;29;20195;-85
2022/06/28 09:07:08;;;;;;;3.28;3.03;;;;;;;45.55;22.82;94926.88;4916862;29;20221;-85
2022/06/28 09:09:35;;;;;;;3.05;2.70;;;;;;;45.43;22.87;94924.34;4918598;29;20187;-86
2022/06/28 09:12:03;;;;;;;2.65;2.45;;;;;;;45.24;22.89;94942.06;4917978;29;20187;-85
2022/06/28 09:14:34;;;;;;;4.15;2.70;;;;;;;45.03;23.03;94933.50;4917822;29;20199;-77
2022/06/28 09:17:20;;;;;;;2.92;2.60;;;;;;;44.81;23.23;94927.59;4918477;29;20195;-85
2022/06/28 09:19:48;;;;;;;5.80;3.00;;;;;;;44.60;23.29;94920.88;4918509;29;20260;-87
2022/06/28 09:22:30;;;;;;;5.43;2.78;;;;;;;44.44;23.43;94929.00;4917663;29;20282;-87
2022/06/28 09:24:57;;;;;;;3.03;2.60;;;;;;;44.25;23.71;94926.97;4917861;29;20192;-84
2022/06/28 09:27:29;;;;;;;4.75;2.45;;;;;;;44.07;23.94;94924.59;4917712;29;20231;-86
2022/06/28 09:29:57;;;;;;;3.22;2.80;;;;;;;43.81;23.83;94919.66;4919520;29;20197;-85
2022/06/28 09:32:30;;;;;;;6.70;2.72;;;;;;;43.72;24.09;94919.03;4918693;29;20199;-85
2022/06/28 09:34:58;;;;;;;2.88;2.60;;;;;;;43.58;24.06;94915.94;4917871;29;20195;-84
2022/06/28 09:37:39;;;;;;;3.45;2.70;;;;;;;43.40;24.48;94911.91;4916977;29;20233;-84
2022/06/28 09:40:20;;;;;;;2.75;2.50;;;;;;;43.28;24.43;94926.22;4917067;29;20191;-86
2022/06/28 09:43:05;;;;;;;7.00;2.83;;;;;;;43.13;24.56;94914.25;4917134;29;20199;-84
2022/06/28 09:45:32;;;;;;;2.53;2.33;;;;;;;42.87;24.62;94903.84;4917237;29;20199;-78
2022/06/28 09:48:01;;;;;;;6.55;3.00;;;;;;;42.79;24.53;94912.81;4916813;29;20717;-85
2022/06/28 09:50:30;;;;;;;4.78;2.78;;;;;;;42.61;24.67;94904.16;4917174;29;20270;-86
2022/06/28 09:52:59;;;;;;;3.55;2.90;;;;;;;42.44;25.29;94907.06;4916448;29;20202;-83
2022/06/28 09:55:29;;;;;;;2.88;2.63;;;;;;;42.25;24.98;94892.28;4916106;29;20200;-81
2022/06/28 09:57:56;;;;;;;3.67;2.85;;;;;;;42.16;25.39;94896.16;4915852;29;20199;-83
2022/06/28 10:00:24;;;;;;;4.97;2.45;;;;;;;42.02;25.39;94901.84;4916515;29;20183;-76
2022/06/28 10:02:54;;;;;;;3.58;2.50;;;;;;;41.89;25.68;94905.63;4916392;29;20249;-80
2022/06/28 10:05:23;;;;;;;5.30;2.88;;;;;;;41.72;25.80;94901.97;4915952;29;20199;-75
2022/06/28 10:07:50;;;;;;;4.38;2.83;;;;;;;41.50;25.93;94888.91;4916609;29;20258;-77
2022/06/28 10:10:20;;;;;;;4.03;2.60;;;;;;;41.41;25.78;94893.53;4916457;29;20291;-75
2022/06/28 10:15:35;;;;;;;3.30;3.00;;;;;;;41.16;26.42;94898.00;4917027;29;20198;-75
2022/06/28 10:18:05;;;;;;;6.43;3.10;;;;;;;41.00;26.28;94898.56;4914585;29;20235;-76
2022/06/28 10:20:35;;;;;;;3.78;3.03;;;;;;;40.85;26.53;94881.13;4916065;29;20647;-77
2022/06/28 10:23:26;;;;;;;2.85;2.63;;;;;;;40.73;26.74;94883.72;4915753;29;20334;-78
2022/06/28 10:26:06;;;;;;;3.17;2.95;;;;;;;40.60;26.64;94876.72;4915666;29;20321;-77
2022/06/28 10:28:39;;;;;;;4.18;2.83;;;;;;;40.48;26.98;94882.72;4915462;29;20239;-75
2022/06/28 10:31:34;;;;;;;3.78;2.88;;;;;;;40.37;26.89;94882.31;4915229;29;20192;-77
2022/06/28 10:34:03;;;;;;;3.33;3.10;;;;;;;40.30;27.07;94886.59;4857208;29;20194;-77
2022/06/28 10:36:42;;;;;;;4.25;2.80;;;;;;;40.25;27.04;94887.56;4857109;29;20201;-75
2022/06/28 10:39:15;;;;;;;3.08;2.78;;;;;;;40.20;26.79;94870.84;4856889;29;20213;-76
2022/06/28 10:41:43;;;;;;;2.92;2.65;;;;;;;40.17;27.02;94869.63;4857337;29;20190;-75
2022/06/28 10:44:12;;;;;;;2.85;2.65;;;;;;;40.12;27.12;94867.91;4856661;29;20232;-79
2022/06/28 10:46:40;;;;;;;3.42;2.35;;;;;;;40.06;27.18;94865.69;4857224;29;20194;-76
2022/06/28 10:49:12;;;;;;;3.08;2.88;;;;;;;40.00;27.42;94861.63;4856926;29;20235;-81
2022/06/28 10:51:58;;;;;;;4.25;2.67;;;;;;;39.93;27.23;94855.97;4860264;29;20306;-82
2022/06/28 10:54:25;;;;;;;3.53;3.03;;;;;;;39.70;27.56;94839.31;4859261;29;20202;-81
2022/06/28 10:56:52;;;;;;;3.50;3.15;;;;;;;39.70;27.67;94858.06;4860398;29;20208;-81
2022/06/28 10:59:20;;;;;;;3.38;2.67;;;;;;;39.58;27.86;94858.69;4858884;29;20262;-83
2022/06/28 11:01:57;;;;;;;3.00;2.80;;;;;;;39.41;28.10;94842.66;4859240;29;20202;-75
2022/06/28 11:04:27;;;;;;;3.28;2.80;;;;;;;39.24;27.84;94832.75;4857576;29;20201;-81
2022/06/28 11:06:59;;;;;;;8.02;3.05;;;;;;;39.20;28.01;94837.13;4857477;29;20197;-81
2022/06/28 11:09:48;;;;;;;4.25;2.72;;;;;;;39.03;28.07;94821.84;4857116;29;20324;-85
2022/06/28 11:12:16;;;;;;;5.13;2.75;;;;;;;38.85;28.35;94802.34;4915566;29;20192;-84
2022/06/28 11:14:52;;;;;;;3.30;3.00;;;;;;;38.71;28.48;94818.53;4915049;29;20188;-85
2022/06/28 11:17:26;;;;;;;3.70;3.20;;;;;;;38.64;28.67;94829.66;4915972;29;20274;-85
2022/06/28 11:19:55;;;;;;;3.35;3.05;;;;;;;38.49;28.85;94837.34;4915294;29;20648;-86
2022/06/28 11:22:26;;;;;;;3.90;3.00;;;;;;;38.33;29.06;94837.00;4915338;29;20188;-85
2022/06/28 11:24:53;;;;;;;2.80;2.60;;;;;;;38.18;28.96;94835.50;4915309;29;20583;-85
2022/06/28 11:27:23;;;;;;;3.35;3.05;;;;;;;38.05;28.96;94841.75;4914948;29;20263;-86
2022/06/28 11:29:55;;;;;;;3.80;2.50;;;;;;;37.94;29.16;94837.75;4915610;29;20371;-85
2022/06/28 11:32:25;;;;;;;5.28;2.65;;;;;;;37.82;29.04;94831.06;4915782;29;20731;-86
2022/06/28 11:34:56;;;;;;;4.72;2.85;;;;;;;37.75;29.04;94827.28;4916180;29;20199;-86
2022/06/28 11:37:25;;;;;;;3.53;2.80;;;;;;;37.67;29.15;94824.25;4917286;29;20275;-85
2022/06/28 11:39:54;;;;;;;3.10;2.85;;;;;;;37.61;29.15;94835.34;4916317;29;20194;-86
2022/06/28 11:42:21;;;;;;;2.60;2.30;;;;;;;37.52;29.43;94835.28;4915879;29;20661;-84
2022/06/28 11:44:50;;;;;;;5.28;3.33;;;;;;;37.22;29.74;94810.13;4915835;29;20192;-84
2022/06/28 11:47:17;;;;;;;4.70;2.90;;;;;;;37.32;29.94;94846.44;4916937;29;20195;-86
2022/06/28 11:49:50;;;;;;;3.50;2.90;;;;;;;37.25;29.91;94841.53;4916585;29;20215;-86
2022/06/28 11:52:17;;;;;;;3.10;2.60;;;;;;;37.17;29.81;94839.56;4915824;29;20196;-86